sensor_id;sensor_type;location;lat;lon;timestamp;pressure;altitude;pressure_sealevel;temperature;humidity
8573;BME280;4324;42.012;24.872;2024-02-23T00:01:53;98860.22;;;7.97;76.09
8573;BME280;4324;42.012;24.872;2024-02-23T00:04:20;98851.06;;;8.01;76.21
8573;BME280;4324;42.012;24.872;2024-02-23T00:06:47;98858.28;;;7.99;76.27
8573;BME280;4324;42.012;24.872;2024-02-23T00:09:15;98868.81;;;7.99;76.53
8573;BME280;4324;42.012;24.872;2024-02-23T00:11:42;98866.50;;;7.96;76.80
8573;BME280;4324;42.012;24.872;2024-02-23T00:14:10;98834.50;;;7.73;77.19
8573;BME280;4324;42.012;24.872;2024-02-23T00:16:38;98866.81;;;7.75;77.35
8573;BME280;4324;42.012;24.872;2024-02-23T00:19:06;98840.91;;;7.52;77.18
8573;BME280;4324;42.012;24.872;2024-02-23T00:21:33;98873.28;;;7.63;77.47
8573;BME280;4324;42.012;24.872;2024-02-23T00:24:00;98859.81;;;7.48;77.35
8573;BME280;4324;42.012;24.872;2024-02-23T00:26:29;98865.06;;;7.48;77.89
8573;BME280;4324;42.012;24.872;2024-02-23T00:28:55;98833.22;;;7.23;78.20
8573;BME280;4324;42.012;24.872;2024-02-23T00:31:22;98866.94;;;7.38;78.49
8573;BME280;4324;42.012;24.872;2024-02-23T00:33:49;98857.69;;;7.34;78.75
8573;BME280;4324;42.012;24.872;2024-02-23T00:36:16;98850.81;;;7.23;78.57
8573;BME280;4324;42.012;24.872;2024-02-23T00:38:43;98851.25;;;7.18;79.06
8573;BME280;4324;42.012;24.872;2024-02-23T00:41:10;98846.28;;;7.15;79.49
8573;BME280;4324;42.012;24.872;2024-02-23T00:43:41;98847.97;;;7.16;79.42
8573;BME280;4324;42.012;24.872;2024-02-23T00:46:08;98851.19;;;7.10;79.80
8573;BME280;4324;42.012;24.872;2024-02-23T00:48:35;98835.44;;;7.00;79.83
8573;BME280;4324;42.012;24.872;2024-02-23T00:51:03;98842.50;;;7.00;79.80
8573;BME280;4324;42.012;24.872;2024-02-23T00:53:30;98832.25;;;6.97;80.03
8573;BME280;4324;42.012;24.872;2024-02-23T00:55:58;98826.03;;;6.98;80.53
8573;BME280;4324;42.012;24.872;2024-02-23T00:58:25;98836.28;;;7.01;80.63
8573;BME280;4324;42.012;24.872;2024-02-23T01:00:53;98829.94;;;6.94;80.73
8573;BME280;4324;42.012;24.872;2024-02-23T01:03:20;98842.41;;;6.92;81.25
8573;BME280;4324;42.012;24.872;2024-02-23T01:05:47;98830.44;;;6.79;81.27
8573;BME280;4324;42.012;24.872;2024-02-23T01:08:14;98831.69;;;6.75;81.30
8573;BME280;4324;42.012;24.872;2024-02-23T01:10:41;98828.09;;;6.76;81.65
8573;BME280;4324;42.012;24.872;2024-02-23T01:13:08;98822.25;;;6.83;81.85
8573;BME280;4324;42.012;24.872;2024-02-23T01:15:34;98812.66;;;6.82;81.82
8573;BME280;4324;42.012;24.872;2024-02-23T01:18:03;98812.78;;;6.90;81.72
8573;BME280;4324;42.012;24.872;2024-02-23T01:20:31;98797.66;;;6.92;81.10
8573;BME280;4324;42.012;24.872;2024-02-23T01:22:58;98810.25;;;6.98;81.58
8573;BME280;4324;42.012;24.872;2024-02-23T01:25:25;98803.38;;;6.87;81.22
8573;BME280;4324;42.012;24.872;2024-02-23T01:27:52;98779.66;;;6.69;81.41
8573;BME280;4324;42.012;24.872;2024-02-23T01:30:18;98803.72;;;6.74;81.96
8573;BME280;4324;42.012;24.872;2024-02-23T01:32:45;98802.50;;;6.69;82.34
8573;BME280;4324;42.012;24.872;2024-02-23T01:35:14;98803.06;;;6.63;82.32
8573;BME280;4324;42.012;24.872;2024-02-23T01:37:41;98802.94;;;6.64;82.40
8573;BME280;4324;42.012;24.872;2024-02-23T01:40:08;98803.78;;;6.65;82.71
8573;BME280;4324;42.012;24.872;2024-02-23T01:42:35;98802.78;;;6.66;82.41
8573;BME280;4324;42.012;24.872;2024-02-23T01:45:02;98806.53;;;6.63;82.94
8573;BME280;4324;42.012;24.872;2024-02-23T01:47:30;98811.78;;;6.63;83.17
8573;BME280;4324;42.012;24.872;2024-02-23T01:49:58;98815.41;;;6.62;82.63
8573;BME280;4324;42.012;24.872;2024-02-23T01:52:27;98794.25;;;6.54;82.82
8573;BME280;4324;42.012;24.872;2024-02-23T01:54:54;98814.84;;;6.68;83.04
8573;BME280;4324;42.012;24.872;2024-02-23T01:57:23;98805.41;;;6.66;83.40
8573;BME280;4324;42.012;24.872;2024-02-23T01:59:51;98811.22;;;6.69;83.49
8573;BME280;4324;42.012;24.872;2024-02-23T02:02:18;98805.13;;;6.69;83.59
8573;BME280;4324;42.012;24.872;2024-02-23T02:04:45;98801.69;;;6.68;83.58
8573;BME280;4324;42.012;24.872;2024-02-23T02:07:12;98791.72;;;6.62;83.54
8573;BME280;4324;42.012;24.872;2024-02-23T02:09:41;98799.34;;;6.65;83.86
8573;BME280;4324;42.012;24.872;2024-02-23T02:12:08;98787.69;;;6.68;83.88
8573;BME280;4324;42.012;24.872;2024-02-23T02:14:35;98777.06;;;6.60;84.02
8573;BME280;4324;42.012;24.872;2024-02-23T02:17:02;98790.16;;;6.69;84.42
8573;BME280;4324;42.012;24.872;2024-02-23T02:19:30;98785.97;;;6.76;84.52
8573;BME280;4324;42.012;24.872;2024-02-23T02:21:57;98781.69;;;6.75;84.02
8573;BME280;4324;42.012;24.872;2024-02-23T02:24:23;98778.91;;;6.77;83.99
8573;BME280;4324;42.012;24.872;2024-02-23T02:26:52;98787.88;;;6.84;83.91
8573;BME280;4324;42.012;24.872;2024-02-23T02:29:18;98772.66;;;6.78;83.82
8573;BME280;4324;42.012;24.872;2024-02-23T02:31:45;98783.44;;;6.85;83.84
8573;BME280;4324;42.012;24.872;2024-02-23T02:34:12;98788.13;;;6.91;84.18
8573;BME280;4324;42.012;24.872;2024-02-23T02:36:40;98778.47;;;6.82;84.11
8573;BME280;4324;42.012;24.872;2024-02-23T02:39:07;98795.94;;;6.83;84.17
8573;BME280;4324;42.012;24.872;2024-02-23T02:41:33;98755.09;;;6.51;84.23
8573;BME280;4324;42.012;24.872;2024-02-23T02:44:03;98802.78;;;6.66;84.21
8573;BME280;4324;42.012;24.872;2024-02-23T02:46:29;98798.63;;;6.63;84.43
8573;BME280;4324;42.012;24.872;2024-02-23T02:48:56;98783.38;;;6.49;84.56
8573;BME280;4324;42.012;24.872;2024-02-23T02:51:23;98809.47;;;6.60;84.53
8573;BME280;4324;42.012;24.872;2024-02-23T02:53:50;98788.47;;;6.50;84.24
8573;BME280;4324;42.012;24.872;2024-02-23T02:56:17;98804.06;;;6.62;84.39
8573;BME280;4324;42.012;24.872;2024-02-23T02:58:44;98803.06;;;6.63;84.73
8573;BME280;4324;42.012;24.872;2024-02-23T03:01:12;98797.69;;;6.64;84.56
8573;BME280;4324;42.012;24.872;2024-02-23T03:03:39;98792.16;;;6.58;84.62
8573;BME280;4324;42.012;24.872;2024-02-23T03:06:06;98793.00;;;6.58;84.96
8573;BME280;4324;42.012;24.872;2024-02-23T03:08:33;98781.41;;;6.51;84.85
8573;BME280;4324;42.012;24.872;2024-02-23T03:11:00;98806.25;;;6.66;85.12
8573;BME280;4324;42.012;24.872;2024-02-23T03:13:27;98767.44;;;6.41;85.04
8573;BME280;4324;42.012;24.872;2024-02-23T03:15:53;98802.34;;;6.70;85.08
8573;BME280;4324;42.012;24.872;2024-02-23T03:18:22;98800.94;;;6.76;85.13
8573;BME280;4324;42.012;24.872;2024-02-23T03:20:49;98797.16;;;6.78;84.21
8573;BME280;4324;42.012;24.872;2024-02-23T03:23:16;98804.13;;;6.79;84.41
8573;BME280;4324;42.012;24.872;2024-02-23T03:25:42;98805.06;;;6.78;83.51
8573;BME280;4324;42.012;24.872;2024-02-23T03:28:09;98807.41;;;6.82;83.64
8573;BME280;4324;42.012;24.872;2024-02-23T03:30:36;98804.78;;;6.82;83.79
8573;BME280;4324;42.012;24.872;2024-02-23T03:33:03;98801.59;;;6.78;84.03
8573;BME280;4324;42.012;24.872;2024-02-23T03:35:32;98811.72;;;6.83;83.96
8573;BME280;4324;42.012;24.872;2024-02-23T03:37:58;98782.03;;;6.63;84.18
8573;BME280;4324;42.012;24.872;2024-02-23T03:40:25;98798.88;;;6.70;84.31
8573;BME280;4324;42.012;24.872;2024-02-23T03:42:52;98809.56;;;6.68;84.50
8573;BME280;4324;42.012;24.872;2024-02-23T03:45:19;98814.59;;;6.62;84.73
8573;BME280;4324;42.012;24.872;2024-02-23T03:47:46;98819.03;;;6.61;84.64
8573;BME280;4324;42.012;24.872;2024-02-23T03:50:13;98814.59;;;6.52;85.06
8573;BME280;4324;42.012;24.872;2024-02-23T03:52:41;98810.91;;;6.45;85.02
8573;BME280;4324;42.012;24.872;2024-02-23T03:55:09;98827.38;;;6.47;85.24
8573;BME280;4324;42.012;24.872;2024-02-23T03:57:36;98827.66;;;6.44;85.16
8573;BME280;4324;42.012;24.872;2024-02-23T04:00:04;98834.72;;;6.43;85.11
8573;BME280;4324;42.012;24.872;2024-02-23T04:02:33;98841.78;;;6.43;84.91
8573;BME280;4324;42.012;24.872;2024-02-23T04:05:00;98831.56;;;6.40;85.24
8573;BME280;4324;42.012;24.872;2024-02-23T04:07:27;98815.94;;;6.28;85.57
8573;BME280;4324;42.012;24.872;2024-02-23T04:09:55;98823.56;;;6.32;85.45
8573;BME280;4324;42.012;24.872;2024-02-23T04:12:22;98831.72;;;6.28;85.54
8573;BME280;4324;42.012;24.872;2024-02-23T04:14:49;98826.09;;;6.23;85.78
8573;BME280;4324;42.012;24.872;2024-02-23T04:17:16;98808.38;;;6.16;85.76
8573;BME280;4324;42.012;24.872;2024-02-23T04:19:42;98808.94;;;6.19;86.00
8573;BME280;4324;42.012;24.872;2024-02-23T04:22:09;98808.66;;;6.13;86.07
8573;BME280;4324;42.012;24.872;2024-02-23T04:24:38;98825.13;;;6.15;86.18
8573;BME280;4324;42.012;24.872;2024-02-23T04:27:07;98823.31;;;6.15;86.42
8573;BME280;4324;42.012;24.872;2024-02-23T04:29:34;98815.03;;;6.10;86.38
8573;BME280;4324;42.012;24.872;2024-02-23T04:32:02;98811.69;;;6.08;86.45
8573;BME280;4324;42.012;24.872;2024-02-23T04:34:29;98820.13;;;6.12;86.44
8573;BME280;4324;42.012;24.872;2024-02-23T04:36:56;98819.91;;;6.05;86.07
8573;BME280;4324;42.012;24.872;2024-02-23T04:39:23;98808.13;;;5.90;86.17
8573;BME280;4324;42.012;24.872;2024-02-23T04:41:49;98796.81;;;5.79;86.55
8573;BME280;4324;42.012;24.872;2024-02-23T04:44:18;98810.22;;;5.86;86.67
8573;BME280;4324;42.012;24.872;2024-02-23T04:46:45;98810.06;;;5.88;86.70
8573;BME280;4324;42.012;24.872;2024-02-23T04:49:11;98796.81;;;5.79;86.87
8573;BME280;4324;42.012;24.872;2024-02-23T04:51:38;98775.81;;;5.60;86.92
8573;BME280;4324;42.012;24.872;2024-02-23T04:54:05;98805.38;;;5.72;87.16
8573;BME280;4324;42.012;24.872;2024-02-23T04:56:33;98806.50;;;5.69;87.44
8573;BME280;4324;42.012;24.872;2024-02-23T04:59:00;98810.78;;;5.70;87.57
8573;BME280;4324;42.012;24.872;2024-02-23T05:01:28;98821.72;;;5.75;87.69
8573;BME280;4324;42.012;24.872;2024-02-23T05:03:55;98810.91;;;5.69;87.72
8573;BME280;4324;42.012;24.872;2024-02-23T05:06:22;98813.41;;;5.70;87.89
8573;BME280;4324;42.012;24.872;2024-02-23T05:08:48;98823.63;;;5.73;87.91
8573;BME280;4324;42.012;24.872;2024-02-23T05:11:15;98819.63;;;5.69;88.03
8573;BME280;4324;42.012;24.872;2024-02-23T05:13:43;98838.16;;;5.77;88.12
8573;BME280;4324;42.012;24.872;2024-02-23T05:16:10;98825.44;;;5.73;87.86
8573;BME280;4324;42.012;24.872;2024-02-23T05:18:40;98837.47;;;5.75;87.81
8573;BME280;4324;42.012;24.872;2024-02-23T05:21:07;98851.28;;;5.77;88.25
8573;BME280;4324;42.012;24.872;2024-02-23T05:23:35;98841.03;;;5.74;88.16
8573;BME280;4324;42.012;24.872;2024-02-23T05:26:02;98838.72;;;5.71;88.13
8573;BME280;4324;42.012;24.872;2024-02-23T05:28:29;98851.56;;;5.74;88.20
8573;BME280;4324;42.012;24.872;2024-02-23T05:30:56;98846.28;;;5.74;88.33
8573;BME280;4324;42.012;24.872;2024-02-23T05:33:23;98840.50;;;5.71;88.45
8573;BME280;4324;42.012;24.872;2024-02-23T05:35:52;98857.34;;;5.78;88.68
8573;BME280;4324;42.012;24.872;2024-02-23T05:38:24;98860.53;;;5.81;88.79
8573;BME280;4324;42.012;24.872;2024-02-23T05:40:53;98860.97;;;5.87;88.97
8573;BME280;4324;42.012;24.872;2024-02-23T05:43:20;98857.09;;;5.91;88.63
8573;BME280;4324;42.012;24.872;2024-02-23T05:45:48;98854.59;;;5.89;88.45
8573;BME280;4324;42.012;24.872;2024-02-23T05:48:15;98854.91;;;5.96;88.62
8573;BME280;4324;42.012;24.872;2024-02-23T05:50:41;98856.41;;;5.98;88.87
8573;BME280;4324;42.012;24.872;2024-02-23T05:53:10;98844.66;;;5.93;88.60
8573;BME280;4324;42.012;24.872;2024-02-23T05:55:37;98859.59;;;5.92;88.97
8573;BME280;4324;42.012;24.872;2024-02-23T05:58:04;98842.16;;;5.81;89.30
8573;BME280;4324;42.012;24.872;2024-02-23T06:00:31;98856.97;;;5.92;89.58
8573;BME280;4324;42.012;24.872;2024-02-23T06:02:57;98860.16;;;5.96;89.58
8573;BME280;4324;42.012;24.872;2024-02-23T06:05:24;98853.91;;;5.97;89.68
8573;BME280;4324;42.012;24.872;2024-02-23T06:07:51;98860.28;;;6.04;89.78
8573;BME280;4324;42.012;24.872;2024-02-23T06:10:19;98858.50;;;6.04;90.01
8573;BME280;4324;42.012;24.872;2024-02-23T06:12:46;98864.97;;;6.10;89.99
8573;BME280;4324;42.012;24.872;2024-02-23T06:15:13;98860.69;;;6.09;89.23
8573;BME280;4324;42.012;24.872;2024-02-23T06:17:40;98870.34;;;6.18;89.11
8573;BME280;4324;42.012;24.872;2024-02-23T06:20:08;98877.41;;;6.27;89.41
8573;BME280;4324;42.012;24.872;2024-02-23T06:22:35;98874.66;;;6.19;89.36
8573;BME280;4324;42.012;24.872;2024-02-23T06:25:03;98901.59;;;6.41;89.71
8573;BME280;4324;42.012;24.872;2024-02-23T06:27:31;98884.47;;;6.27;89.22
8573;BME280;4324;42.012;24.872;2024-02-23T06:29:58;98915.97;;;6.46;89.31
8573;BME280;4324;42.012;24.872;2024-02-23T06:32:25;98911.94;;;6.52;89.56
8573;BME280;4324;42.012;24.872;2024-02-23T06:34:52;98915.94;;;6.56;89.52
8573;BME280;4324;42.012;24.872;2024-02-23T06:37:20;98911.22;;;6.60;89.08
8573;BME280;4324;42.012;24.872;2024-02-23T06:39:47;98904.31;;;6.59;88.89
8573;BME280;4324;42.012;24.872;2024-02-23T06:42:20;98908.03;;;6.66;89.03
8573;BME280;4324;42.012;24.872;2024-02-23T06:44:48;98907.59;;;6.70;88.78
8573;BME280;4324;42.012;24.872;2024-02-23T06:47:15;98903.41;;;6.77;88.33
8573;BME280;4324;42.012;24.872;2024-02-23T06:49:42;98911.84;;;6.91;88.74
8573;BME280;4324;42.012;24.872;2024-02-23T06:52:09;98902.78;;;6.93;88.65
8573;BME280;4324;42.012;24.872;2024-02-23T06:54:36;98902.31;;;7.08;88.56
8573;BME280;4324;42.012;24.872;2024-02-23T06:57:04;98902.28;;;7.17;88.60
8573;BME280;4324;42.012;24.872;2024-02-23T06:59:30;98895.28;;;7.26;89.02
8573;BME280;4324;42.012;24.872;2024-02-23T07:01:59;98896.22;;;7.35;88.67
8573;BME280;4324;42.012;24.872;2024-02-23T07:04:26;98886.34;;;7.37;88.79
8573;BME280;4324;42.012;24.872;2024-02-23T07:06:55;98884.56;;;7.55;88.76
8573;BME280;4324;42.012;24.872;2024-02-23T07:09:22;98881.72;;;7.66;88.12
8573;BME280;4324;42.012;24.872;2024-02-23T07:11:48;98877.13;;;7.68;87.99
8573;BME280;4324;42.012;24.872;2024-02-23T07:14:15;98890.84;;;7.90;87.88
8573;BME280;4324;42.012;24.872;2024-02-23T07:16:43;98893.53;;;7.98;87.27
8573;BME280;4324;42.012;24.872;2024-02-23T07:19:12;98900.91;;;8.12;87.50
8573;BME280;4324;42.012;24.872;2024-02-23T07:21:39;98896.00;;;8.17;87.18
8573;BME280;4324;42.012;24.872;2024-02-23T07:24:06;98893.06;;;8.20;87.21
8573;BME280;4324;42.012;24.872;2024-02-23T07:26:33;98884.69;;;8.25;87.16
8573;BME280;4324;42.012;24.872;2024-02-23T07:29:00;98889.34;;;8.31;87.14
8573;BME280;4324;42.012;24.872;2024-02-23T07:31:27;98884.81;;;8.41;87.31
8573;BME280;4324;42.012;24.872;2024-02-23T07:33:54;98880.75;;;8.47;87.14
8573;BME280;4324;42.012;24.872;2024-02-23T07:36:22;98886.06;;;8.55;87.13
8573;BME280;4324;42.012;24.872;2024-02-23T07:38:49;98893.00;;;8.56;86.24
8573;BME280;4324;42.012;24.872;2024-02-23T07:41:16;98888.81;;;8.45;85.99
8573;BME280;4324;42.012;24.872;2024-02-23T07:43:43;98900.19;;;8.46;86.01
8573;BME280;4324;42.012;24.872;2024-02-23T07:46:10;98849.88;;;8.21;86.31
8573;BME280;4324;42.012;24.872;2024-02-23T07:48:37;98878.72;;;8.41;86.23
8573;BME280;4324;42.012;24.872;2024-02-23T07:51:05;98900.09;;;8.56;86.54
8573;BME280;4324;42.012;24.872;2024-02-23T07:53:33;98887.72;;;8.56;86.03
8573;BME280;4324;42.012;24.872;2024-02-23T07:56:00;98893.72;;;8.66;86.28
8573;BME280;4324;42.012;24.872;2024-02-23T07:58:28;98850.72;;;8.48;86.12
8573;BME280;4324;42.012;24.872;2024-02-23T08:00:55;98878.78;;;8.75;86.11
8573;BME280;4324;42.012;24.872;2024-02-23T08:03:22;98870.38;;;8.80;86.30
8573;BME280;4324;42.012;24.872;2024-02-23T08:05:49;98861.19;;;9.00;85.60
8573;BME280;4324;42.012;24.872;2024-02-23T08:08:16;98873.31;;;9.19;85.57
8573;BME280;4324;42.012;24.872;2024-02-23T08:10:44;98857.66;;;9.26;85.82
8573;BME280;4324;42.012;24.872;2024-02-23T08:13:11;98863.00;;;9.42;85.38
8573;BME280;4324;42.012;24.872;2024-02-23T08:15:38;98841.19;;;9.40;85.21
8573;BME280;4324;42.012;24.872;2024-02-23T08:18:05;98858.41;;;9.60;85.00
8573;BME280;4324;42.012;24.872;2024-02-23T08:20:32;98857.72;;;9.75;84.95
8573;BME280;4324;42.012;24.872;2024-02-23T08:22:59;98864.38;;;9.87;84.68
8573;BME280;4324;42.012;24.872;2024-02-23T08:25:26;98858.72;;;9.90;84.63
8573;BME280;4324;42.012;24.872;2024-02-23T08:27:55;98869.00;;;10.01;84.55
8573;BME280;4324;42.012;24.872;2024-02-23T08:30:24;98856.09;;;10.06;84.15
8573;BME280;4324;42.012;24.872;2024-02-23T08:32:50;98826.34;;;9.88;83.91
8573;BME280;4324;42.012;24.872;2024-02-23T08:35:18;98859.91;;;10.20;83.77
8573;BME280;4324;42.012;24.872;2024-02-23T08:37:45;98842.84;;;10.14;83.99
8573;BME280;4324;42.012;24.872;2024-02-23T08:40:12;98860.91;;;10.35;83.86
8573;BME280;4324;42.012;24.872;2024-02-23T08:42:39;98862.06;;;10.33;83.81
8573;BME280;4324;42.012;24.872;2024-02-23T08:45:08;98867.34;;;10.41;83.77
8573;BME280;4324;42.012;24.872;2024-02-23T08:47:38;98864.19;;;10.46;83.67
8573;BME280;4324;42.012;24.872;2024-02-23T08:50:06;98864.31;;;10.52;83.28
8573;BME280;4324;42.012;24.872;2024-02-23T08:52:33;98846.50;;;10.46;82.87
8573;BME280;4324;42.012;24.872;2024-02-23T08:55:00;98856.22;;;10.62;82.50
8573;BME280;4324;42.012;24.872;2024-02-23T08:57:27;98857.69;;;10.64;82.35
8573;BME280;4324;42.012;24.872;2024-02-23T08:59:54;98855.53;;;10.68;82.31
8573;BME280;4324;42.012;24.872;2024-02-23T09:02:24;98857.97;;;10.78;82.20
8573;BME280;4324;42.012;24.872;2024-02-23T09:04:51;98843.09;;;10.77;82.02
8573;BME280;4324;42.012;24.872;2024-02-23T09:07:18;98856.97;;;10.87;81.44
8573;BME280;4324;42.012;24.872;2024-02-23T09:09:46;98860.25;;;10.89;81.30
8573;BME280;4324;42.012;24.872;2024-02-23T09:12:14;98821.59;;;10.72;81.21
8573;BME280;4324;42.012;24.872;2024-02-23T09:14:42;98851.28;;;10.98;81.26
8573;BME280;4324;42.012;24.872;2024-02-23T09:17:09;98842.97;;;11.09;80.94
8573;BME280;4324;42.012;24.872;2024-02-23T09:19:38;98839.78;;;11.14;80.55
8573;BME280;4324;42.012;24.872;2024-02-23T09:22:05;98845.50;;;11.26;80.43
8573;BME280;4324;42.012;24.872;2024-02-23T09:24:32;98822.34;;;11.20;80.14
8573;BME280;4324;42.012;24.872;2024-02-23T09:26:58;98834.69;;;11.35;80.04
8573;BME280;4324;42.012;24.872;2024-02-23T09:29:25;98843.34;;;11.52;79.90
8573;BME280;4324;42.012;24.872;2024-02-23T09:31:52;98838.53;;;11.56;79.71
8573;BME280;4324;42.012;24.872;2024-02-23T09:34:19;98829.88;;;11.62;79.65
8573;BME280;4324;42.012;24.872;2024-02-23T09:36:47;98826.16;;;11.71;79.62
8573;BME280;4324;42.012;24.872;2024-02-23T09:39:14;98826.75;;;11.81;79.06
8573;BME280;4324;42.012;24.872;2024-02-23T09:41:42;98816.94;;;11.82;78.45
8573;BME280;4324;42.012;24.872;2024-02-23T09:44:09;98806.03;;;11.85;77.74
8573;BME280;4324;42.012;24.872;2024-02-23T09:46:36;98813.56;;;11.96;76.95
8573;BME280;4324;42.012;24.872;2024-02-23T09:49:04;98809.88;;;11.97;76.86
8573;BME280;4324;42.012;24.872;2024-02-23T09:51:34;98801.75;;;11.99;76.64
8573;BME280;4324;42.012;24.872;2024-02-23T09:54:03;98798.00;;;12.08;76.65
8573;BME280;4324;42.012;24.872;2024-02-23T09:56:30;98793.34;;;12.10;76.45
8573;BME280;4324;42.012;24.872;2024-02-23T09:59:01;98796.75;;;12.19;76.02
8573;BME280;4324;42.012;24.872;2024-02-23T10:01:29;98782.84;;;12.17;75.04
8573;BME280;4324;42.012;24.872;2024-02-23T10:03:59;98794.00;;;12.27;75.07
8573;BME280;4324;42.012;24.872;2024-02-23T10:06:26;98791.28;;;12.35;74.94
8573;BME280;4324;42.012;24.872;2024-02-23T10:08:54;98781.59;;;12.42;75.12
8573;BME280;4324;42.012;24.872;2024-02-23T10:11:23;98787.06;;;12.55;74.92
8573;BME280;4324;42.012;24.872;2024-02-23T10:13:51;98783.03;;;12.59;74.98
8573;BME280;4324;42.012;24.872;2024-02-23T10:16:18;98772.03;;;12.63;75.10
8573;BME280;4324;42.012;24.872;2024-02-23T10:18:46;98777.91;;;12.73;74.81
8573;BME280;4324;42.012;24.872;2024-02-23T10:21:14;98777.13;;;12.79;74.11
8573;BME280;4324;42.012;24.872;2024-02-23T10:23:41;98769.63;;;12.82;73.49
8573;BME280;4324;42.012;24.872;2024-02-23T10:26:08;98769.34;;;12.92;73.24
8573;BME280;4324;42.012;24.872;2024-02-23T10:28:37;98774.91;;;12.97;73.20
8573;BME280;4324;42.012;24.872;2024-02-23T10:31:04;98776.09;;;13.10;73.07
8573;BME280;4324;42.012;24.872;2024-02-23T10:33:31;98746.19;;;13.07;73.15
8573;BME280;4324;42.012;24.872;2024-02-23T10:35:58;98761.03;;;13.17;72.78
8573;BME280;4324;42.012;24.872;2024-02-23T10:38:29;98760.47;;;13.21;72.57
8573;BME280;4324;42.012;24.872;2024-02-23T10:40:59;98727.22;;;13.11;72.57
8573;BME280;4324;42.012;24.872;2024-02-23T10:43:30;98741.03;;;13.21;72.31
8573;BME280;4324;42.012;24.872;2024-02-23T10:46:01;98731.69;;;13.25;71.85
8573;BME280;4324;42.012;24.872;2024-02-23T10:48:33;98749.22;;;13.41;70.67
8573;BME280;4324;42.012;24.872;2024-02-23T10:51:03;98718.03;;;13.28;70.70
8573;BME280;4324;42.012;24.872;2024-02-23T10:53:31;98734.34;;;13.46;70.35
8573;BME280;4324;42.012;24.872;2024-02-23T10:55:59;98730.09;;;13.52;70.33
8573;BME280;4324;42.012;24.872;2024-02-23T10:58:26;98725.88;;;13.58;70.23
8573;BME280;4324;42.012;24.872;2024-02-23T11:00:59;98721.16;;;13.60;69.93
8573;BME280;4324;42.012;24.872;2024-02-23T11:03:30;98707.84;;;13.60;69.77
8573;BME280;4324;42.012;24.872;2024-02-23T11:05:59;98696.16;;;13.54;69.36
8573;BME280;4324;42.012;24.872;2024-02-23T11:08:27;98713.03;;;13.68;69.06
8573;BME280;4324;42.012;24.872;2024-02-23T11:10:54;98718.03;;;13.77;69.08
8573;BME280;4324;42.012;24.872;2024-02-23T11:13:29;98681.50;;;13.65;68.20
8573;BME280;4324;42.012;24.872;2024-02-23T11:16:01;98681.97;;;13.75;68.49
8573;BME280;4324;42.012;24.872;2024-02-23T11:18:30;98713.84;;;13.96;68.46
8573;BME280;4324;42.012;24.872;2024-02-23T11:21:00;98696.28;;;14.02;67.87
8573;BME280;4324;42.012;24.872;2024-02-23T11:23:27;98687.88;;;13.98;68.04
8573;BME280;4324;42.012;24.872;2024-02-23T11:26:06;98697.34;;;14.08;67.46
8573;BME280;4324;42.012;24.872;2024-02-23T11:28:42;98703.13;;;14.18;66.83
8573;BME280;4324;42.012;24.872;2024-02-23T11:31:13;98692.09;;;14.21;66.58
8573;BME280;4324;42.012;24.872;2024-02-23T11:33:52;98697.59;;;14.19;66.45
8573;BME280;4324;42.012;24.872;2024-02-23T11:36:22;98690.03;;;14.23;66.66
8573;BME280;4324;42.012;24.872;2024-02-23T11:38:52;98672.22;;;14.23;66.52
8573;BME280;4324;42.012;24.872;2024-02-23T11:41:20;98679.22;;;14.31;66.59
8573;BME280;4324;42.012;24.872;2024-02-23T11:43:47;98666.75;;;14.32;66.27
8573;BME280;4324;42.012;24.872;2024-02-23T11:46:15;98656.50;;;14.28;65.67
8573;BME280;4324;42.012;24.872;2024-02-23T11:48:41;98671.38;;;14.51;65.29
8573;BME280;4324;42.012;24.872;2024-02-23T11:51:10;98663.19;;;14.59;65.09
8573;BME280;4324;42.012;24.872;2024-02-23T11:53:37;98660.94;;;14.63;64.99
8573;BME280;4324;42.012;24.872;2024-02-23T11:56:04;98668.34;;;14.67;65.01
8573;BME280;4324;42.012;24.872;2024-02-23T11:58:32;98648.25;;;14.65;64.95
8573;BME280;4324;42.012;24.872;2024-02-23T12:00:58;98659.53;;;14.73;64.39
8573;BME280;4324;42.012;24.872;2024-02-23T12:03:28;98656.28;;;14.78;63.87
8573;BME280;4324;42.012;24.872;2024-02-23T12:05:57;98640.69;;;14.75;63.65
8573;BME280;4324;42.012;24.872;2024-02-23T12:08:25;98629.19;;;14.74;63.09
8573;BME280;4324;42.012;24.872;2024-02-23T12:10:54;98641.13;;;14.92;63.41
8573;BME280;4324;42.012;24.872;2024-02-23T12:13:21;98650.59;;;15.08;63.21
8573;BME280;4324;42.012;24.872;2024-02-23T12:15:48;98645.25;;;15.14;62.93
8573;BME280;4324;42.012;24.872;2024-02-23T12:18:18;98639.13;;;15.20;63.03
8573;BME280;4324;42.012;24.872;2024-02-23T12:20:49;98632.53;;;15.23;62.79
8573;BME280;4324;42.012;24.872;2024-02-23T12:23:15;98643.63;;;15.33;62.45
8573;BME280;4324;42.012;24.872;2024-02-23T12:25:53;98632.16;;;15.39;62.41
8573;BME280;4324;42.012;24.872;2024-02-23T12:28:21;98630.31;;;15.46;62.06
8573;BME280;4324;42.012;24.872;2024-02-23T12:30:58;98620.63;;;15.45;62.25
8573;BME280;4324;42.012;24.872;2024-02-23T12:33:27;98626.38;;;15.56;62.19
8573;BME280;4324;42.012;24.872;2024-02-23T12:35:54;98613.66;;;15.58;62.11
8573;BME280;4324;42.012;24.872;2024-02-23T12:38:21;98624.31;;;15.71;61.86
8573;BME280;4324;42.012;24.872;2024-02-23T12:40:48;98617.13;;;15.71;61.30
8573;BME280;4324;42.012;24.872;2024-02-23T12:43:17;98607.91;;;15.74;61.27
8573;BME280;4324;42.012;24.872;2024-02-23T12:45:46;98586.13;;;15.64;61.47
8573;BME280;4324;42.012;24.872;2024-02-23T12:48:15;98609.50;;;15.88;61.26
8573;BME280;4324;42.012;24.872;2024-02-23T12:50:42;98605.38;;;15.92;61.34
8573;BME280;4324;42.012;24.872;2024-02-23T12:53:11;98594.28;;;15.95;61.03
8573;BME280;4324;42.012;24.872;2024-02-23T12:55:56;98600.44;;;16.03;60.62
8573;BME280;4324;42.012;24.872;2024-02-23T12:58:24;98597.13;;;16.01;60.46
8573;BME280;4324;42.012;24.872;2024-02-23T13:00:51;98585.88;;;15.99;60.29
8573;BME280;4324;42.012;24.872;2024-02-23T13:03:18;98592.00;;;16.06;60.38
8573;BME280;4324;42.012;24.872;2024-02-23T13:05:45;98593.00;;;16.11;60.23
8573;BME280;4324;42.012;24.872;2024-02-23T13:08:12;98576.56;;;16.08;60.39
8573;BME280;4324;42.012;24.872;2024-02-23T13:10:39;98589.91;;;16.14;60.59
8573;BME280;4324;42.012;24.872;2024-02-23T13:13:06;98584.34;;;16.16;60.40
8573;BME280;4324;42.012;24.872;2024-02-23T13:15:34;98575.31;;;16.17;60.10
8573;BME280;4324;42.012;24.872;2024-02-23T13:18:02;98572.03;;;16.15;59.87
8573;BME280;4324;42.012;24.872;2024-02-23T13:20:30;98566.25;;;16.18;60.12